createdAt,value
2023-03-10T05:32:49.741Z,8.82
2023-03-10T05:35:52.506Z,8.82
2023-03-10T05:38:55.098Z,9.27
2023-03-10T05:41:57.695Z,8.88
2023-03-10T05:45:00.249Z,8.73
2023-03-10T05:48:02.904Z,9.60
2023-03-10T05:51:07.660Z,10.68
2023-03-10T05:54:10.352Z,9.25
2023-03-10T05:57:14.072Z,8.18
2023-03-10T06:00:17.174Z,8.15
2023-03-10T06:03:19.933Z,9.18
2023-03-10T06:06:22.544Z,12.50
2023-03-10T06:09:25.104Z,11.20
2023-03-10T06:12:27.782Z,13.05
2023-03-10T06:15:30.848Z,14.98
2023-03-10T06:18:33.606Z,10.23
2023-03-10T06:21:36.159Z,8.68
2023-03-10T06:24:38.734Z,9.02
2023-03-10T06:27:41.297Z,8.32
2023-03-10T06:30:43.766Z,8.60
2023-03-10T06:33:46.332Z,8.10
2023-03-10T06:36:48.881Z,8.27
2023-03-10T06:39:51.423Z,8.35
2023-03-10T06:42:53.953Z,8.90
2023-03-10T06:45:56.671Z,9.23
2023-03-10T06:48:59.290Z,8.27
2023-03-10T06:52:01.826Z,8.32
2023-03-10T06:55:04.861Z,8.02
2023-03-10T06:58:07.454Z,7.90
2023-03-10T07:01:18.606Z,7.20
2023-03-10T07:04:21.218Z,7.00
2023-03-10T07:07:23.831Z,6.03
2023-03-10T07:10:26.460Z,6.03
2023-03-10T07:13:29.000Z,5.97
2023-03-10T07:16:31.509Z,6.28
2023-03-10T07:19:34.167Z,6.80
2023-03-10T07:22:36.720Z,6.95
2023-03-10T07:25:39.483Z,4.57
2023-03-10T07:28:42.003Z,4.37
2023-03-10T07:31:45.293Z,4.25
2023-03-10T07:34:47.899Z,3.97
2023-03-10T07:37:50.485Z,4.60
2023-03-10T07:40:53.101Z,3.97
2023-03-10T07:43:55.675Z,3.35
2023-03-10T07:46:58.256Z,3.62
2023-03-10T07:50:00.789Z,3.90
2023-03-10T07:53:03.336Z,3.70
2023-03-10T07:56:07.064Z,3.75
2023-03-10T07:59:09.589Z,3.33
2023-03-10T08:02:15.029Z,3.95
2023-03-10T08:05:17.613Z,3.47
2023-03-10T08:08:20.195Z,3.70
2023-03-10T08:11:23.278Z,3.62
2023-03-10T08:14:27.469Z,4.18
2023-03-10T08:17:33.703Z,5.00
2023-03-10T08:20:36.840Z,3.78
2023-03-10T08:23:39.511Z,3.55
2023-03-10T08:26:42.470Z,3.50
2023-03-10T08:29:45.057Z,3.45
2023-03-10T08:32:47.798Z,3.67
2023-03-10T08:35:50.459Z,3.17
2023-03-10T08:38:54.105Z,3.28
2023-03-10T08:41:56.737Z,3.40
2023-03-10T08:44:59.227Z,3.37
2023-03-10T08:48:01.806Z,5.87
2023-03-10T08:51:05.158Z,3.08
2023-03-10T08:54:07.956Z,2.90
2023-03-10T08:57:10.542Z,3.10
2023-03-10T09:00:16.153Z,3.20
2023-03-10T09:03:19.892Z,3.33
2023-03-10T09:06:22.582Z,3.33
2023-03-10T09:09:25.134Z,2.87
2023-03-10T09:12:33.510Z,3.97
2023-03-10T09:15:41.362Z,4.53
2023-03-10T09:18:43.995Z,3.45
2023-03-10T09:21:47.940Z,3.33
2023-03-10T09:24:50.500Z,4.12
2023-03-10T09:27:53.096Z,3.40
2023-03-10T09:30:55.676Z,3.65
2023-03-10T09:33:58.253Z,3.22
2023-03-10T09:37:01.297Z,3.83
2023-03-10T09:40:06.460Z,2.72
2023-03-10T09:43:16.393Z,2.58
2023-03-10T09:46:23.125Z,2.17
2023-03-10T09:49:38.554Z,1.77
2023-03-10T09:53:07.565Z,2.28
2023-03-10T09:56:17.892Z,2.05
2023-03-10T09:59:34.618Z,2.30
2023-03-10T10:02:41.721Z,1.80
2023-03-10T10:05:44.368Z,1.48
2023-03-10T10:09:05.002Z,1.55
2023-03-10T10:12:15.753Z,1.30
2023-03-10T10:15:22.181Z,1.30
2023-03-10T10:18:29.411Z,1.52
2023-03-10T10:21:47.751Z,1.37
2023-03-10T10:25:08.789Z,1.33
2023-03-10T10:28:19.642Z,1.30
2023-03-10T10:31:24.674Z,1.30
2023-03-10T10:34:27.389Z,1.60
2023-03-10T10:37:34.243Z,1.67
2023-03-10T10:40:57.103Z,1.70
2023-03-10T10:44:13.224Z,1.58
2023-03-10T10:47:46.501Z,1.40
2023-03-10T10:50:53.493Z,1.48
2023-03-10T10:53:56.989Z,1.70
2023-03-10T10:57:00.568Z,1.52
2023-03-10T11:00:26.709Z,2.05
2023-03-10T11:03:36.975Z,1.42
2023-03-10T11:06:39.604Z,1.45
2023-03-10T11:09:42.578Z,1.80
2023-03-10T11:12:55.417Z,1.62
2023-03-10T11:16:07.118Z,1.40
2023-03-10T11:19:34.421Z,1.62
2023-03-10T11:22:48.048Z,1.80
2023-03-10T11:26:07.832Z,1.60
2023-03-10T11:29:51.554Z,1.60
2023-03-10T11:33:02.004Z,1.75
2023-03-10T11:36:21.205Z,1.60
2023-03-10T11:39:50.046Z,1.40
2023-03-10T11:43:03.685Z,1.85
2023-03-10T11:46:22.557Z,1.95
2023-03-10T11:49:27.584Z,1.95
2023-03-10T11:52:30.245Z,2.20
2023-03-10T11:55:32.766Z,1.80
2023-03-10T11:59:03.227Z,1.95
2023-03-10T12:02:25.992Z,2.15
2023-03-10T12:05:28.599Z,1.80
2023-03-10T12:08:33.715Z,2.30
2023-03-10T12:14:39.663Z,1.83
2023-03-10T12:17:42.307Z,1.85
2023-03-10T12:20:44.786Z,2.33
2023-03-10T12:23:49.276Z,2.10
2023-03-10T12:26:58.609Z,1.50
2023-03-10T12:30:01.231Z,1.95
2023-03-10T12:33:03.786Z,1.85
2023-03-10T12:36:34.752Z,2.20
2023-03-10T12:39:41.283Z,2.70
2023-03-10T12:42:46.255Z,2.30
2023-03-10T12:45:48.758Z,2.20
2023-03-10T12:49:03.124Z,2.28
2023-03-10T12:52:36.747Z,1.85
2023-03-10T12:55:41.544Z,1.70
2023-03-10T12:59:11.373Z,1.85
2023-03-10T13:02:23.845Z,1.90
2023-03-10T13:05:29.632Z,1.77
2023-03-10T13:08:55.439Z,1.90
2023-03-10T13:15:29.357Z,2.00
2023-03-10T13:21:36.294Z,1.40
2023-03-10T13:24:40.566Z,1.95
2023-03-10T13:27:43.123Z,2.10
2023-03-10T13:30:47.143Z,1.77
2023-03-10T13:33:53.669Z,1.40
2023-03-10T13:37:06.887Z,1.42
2023-03-10T13:40:11.136Z,4.40
2023-03-10T13:43:46.398Z,1.42
2023-03-10T13:46:54.274Z,1.30
2023-03-10T13:49:58.846Z,5.50
2023-03-10T13:53:04.643Z,3.47
2023-03-10T13:56:27.307Z,1.90
2023-03-10T13:59:31.435Z,3.20
2023-03-10T14:02:37.388Z,5.55
2023-03-10T14:05:46.146Z,8.00
2023-03-10T14:08:50.076Z,3.65
2023-03-10T14:11:52.717Z,2.47
2023-03-10T14:14:55.392Z,2.05
2023-03-10T14:18:07.108Z,5.28
2023-03-10T14:21:30.713Z,2.10
2023-03-10T14:24:33.410Z,2.92
2023-03-10T14:27:36.599Z,4.15
2023-03-10T14:30:40.446Z,2.00
2023-03-10T14:33:43.008Z,1.35
2023-03-10T14:36:45.550Z,1.37
2023-03-10T14:39:48.548Z,1.55
2023-03-10T14:42:51.566Z,1.50
2023-03-10T14:45:55.453Z,1.77
2023-03-10T14:48:58.186Z,1.23
2023-03-10T14:52:00.866Z,1.27
2023-03-10T14:55:08.335Z,1.75
2023-03-10T14:58:31.662Z,1.37
2023-03-10T15:01:34.389Z,1.30
2023-03-10T15:04:37.800Z,1.50
2023-03-10T15:07:40.701Z,1.50
2023-03-10T15:10:46.765Z,1.40
2023-03-10T15:13:49.280Z,1.70
2023-03-10T15:16:52.185Z,1.90
2023-03-10T15:19:55.092Z,2.03
2023-03-10T15:22:57.871Z,2.10
2023-03-10T15:26:03.059Z,2.10
2023-03-10T15:29:05.656Z,2.00
2023-03-10T15:32:08.514Z,2.55
2023-03-10T15:35:11.872Z,2.22
2023-03-10T15:38:14.586Z,2.40
2023-03-10T15:41:17.408Z,3.12
2023-03-10T15:44:20.138Z,2.85
2023-03-10T15:47:23.410Z,3.17
2023-03-10T15:50:26.085Z,2.85
2023-03-10T15:53:28.677Z,2.80
2023-03-10T15:56:31.314Z,3.05
